X  Sluiten METAR luchtvaart weer gegevens         LYNI Nis Airport
Temperatuur
48°F Temperatuur
46°F Dauwpunt
93% Vochtigheid



Wind
12 MPH
19 KM/U
5 M/S
10 KTS



330°
NNW
Huidig weer

Mostly Cloudy with Light Rain Grotendeels bewolkt , Lichte Regen
Luchtdruk 1008 (hPa) - 29.77 (inHg)
Zicht 6 (mijl) - 10 (km)
Vliegveld
Vliegveld code LYNI

Locatie : Nis Airport
Afstand: 63 (mi)

Metar:
METAR LYNI 250700Z 33010KT 9999 -RA FEW013 BKN047 09/08 Q1008 NOSIG

Tijd: 25-04-2024 09:00 CEST